sensor_id;sensor_type;location;lat;lon;timestamp;temperature;humidity
11239;DHT22;5677;48.488;13.436;2022-07-23T00:02:25;23.40;56.20
11239;DHT22;5677;48.488;13.436;2022-07-23T00:04:53;23.40;56.20
11239;DHT22;5677;48.488;13.436;2022-07-23T00:07:20;23.40;56.20
11239;DHT22;5677;48.488;13.436;2022-07-23T00:09:47;23.40;56.20
11239;DHT22;5677;48.488;13.436;2022-07-23T00:12:14;23.30;56.20
11239;DHT22;5677;48.488;13.436;2022-07-23T00:14:41;23.30;56.30
11239;DHT22;5677;48.488;13.436;2022-07-23T00:17:08;23.30;56.20
11239;DHT22;5677;48.488;13.436;2022-07-23T00:19:35;23.30;56.20
11239;DHT22;5677;48.488;13.436;2022-07-23T00:22:03;23.30;56.90
11239;DHT22;5677;48.488;13.436;2022-07-23T00:24:30;23.30;56.20
11239;DHT22;5677;48.488;13.436;2022-07-23T00:26:57;23.30;56.20
11239;DHT22;5677;48.488;13.436;2022-07-23T00:29:24;23.30;56.20
11239;DHT22;5677;48.488;13.436;2022-07-23T00:31:51;23.30;56.20
11239;DHT22;5677;48.488;13.436;2022-07-23T00:34:18;23.30;56.20
11239;DHT22;5677;48.488;13.436;2022-07-23T00:36:45;23.30;56.30
11239;DHT22;5677;48.488;13.436;2022-07-23T00:39:13;23.30;56.20
11239;DHT22;5677;48.488;13.436;2022-07-23T00:41:40;23.30;56.30
11239;DHT22;5677;48.488;13.436;2022-07-23T00:44:18;23.30;56.30
11239;DHT22;5677;48.488;13.436;2022-07-23T00:46:48;23.30;56.30
11239;DHT22;5677;48.488;13.436;2022-07-23T00:49:18;23.30;56.30
11239;DHT22;5677;48.488;13.436;2022-07-23T00:51:45;23.30;56.30
11239;DHT22;5677;48.488;13.436;2022-07-23T00:54:15;23.30;56.30
11239;DHT22;5677;48.488;13.436;2022-07-23T00:56:43;23.30;56.30
11239;DHT22;5677;48.488;13.436;2022-07-23T00:59:11;23.30;56.30
11239;DHT22;5677;48.488;13.436;2022-07-23T01:01:38;23.30;56.30
11239;DHT22;5677;48.488;13.436;2022-07-23T01:04:09;23.30;56.30
11239;DHT22;5677;48.488;13.436;2022-07-23T01:06:37;23.30;56.30
11239;DHT22;5677;48.488;13.436;2022-07-23T01:09:05;23.30;56.30
11239;DHT22;5677;48.488;13.436;2022-07-23T01:11:36;23.30;56.30
11239;DHT22;5677;48.488;13.436;2022-07-23T01:14:11;23.30;56.30
11239;DHT22;5677;48.488;13.436;2022-07-23T01:16:39;23.30;56.40
11239;DHT22;5677;48.488;13.436;2022-07-23T01:19:07;23.30;56.40
11239;DHT22;5677;48.488;13.436;2022-07-23T01:21:39;23.30;56.40
11239;DHT22;5677;48.488;13.436;2022-07-23T01:24:10;23.20;56.30
11239;DHT22;5677;48.488;13.436;2022-07-23T01:26:45;23.30;56.40
11239;DHT22;5677;48.488;13.436;2022-07-23T01:29:14;23.30;56.40
11239;DHT22;5677;48.488;13.436;2022-07-23T01:31:42;23.30;56.40
11239;DHT22;5677;48.488;13.436;2022-07-23T01:34:10;23.30;56.40
11239;DHT22;5677;48.488;13.436;2022-07-23T01:36:37;23.30;56.40
11239;DHT22;5677;48.488;13.436;2022-07-23T01:39:05;23.30;56.40
11239;DHT22;5677;48.488;13.436;2022-07-23T01:41:34;23.20;56.30
11239;DHT22;5677;48.488;13.436;2022-07-23T01:44:01;23.30;56.40
11239;DHT22;5677;48.488;13.436;2022-07-23T01:46:28;23.20;57.00
11239;DHT22;5677;48.488;13.436;2022-07-23T01:48:55;23.30;56.40
11239;DHT22;5677;48.488;13.436;2022-07-23T01:51:22;23.20;56.40
11239;DHT22;5677;48.488;13.436;2022-07-23T01:53:49;23.20;56.40
11239;DHT22;5677;48.488;13.436;2022-07-23T01:56:16;23.20;56.40
11239;DHT22;5677;48.488;13.436;2022-07-23T01:58:47;23.20;56.40
11239;DHT22;5677;48.488;13.436;2022-07-23T02:01:14;23.20;56.40
11239;DHT22;5677;48.488;13.436;2022-07-23T02:03:41;23.20;56.40
11239;DHT22;5677;48.488;13.436;2022-07-23T02:06:08;23.20;56.40
11239;DHT22;5677;48.488;13.436;2022-07-23T02:08:35;23.20;56.40
11239;DHT22;5677;48.488;13.436;2022-07-23T02:11:02;23.20;56.40
11239;DHT22;5677;48.488;13.436;2022-07-23T02:13:29;23.20;56.40
11239;DHT22;5677;48.488;13.436;2022-07-23T02:15:57;23.20;56.40
11239;DHT22;5677;48.488;13.436;2022-07-23T02:18:24;23.20;56.40
11239;DHT22;5677;48.488;13.436;2022-07-23T02:20:51;23.20;56.40
11239;DHT22;5677;48.488;13.436;2022-07-23T02:23:18;23.20;56.50
11239;DHT22;5677;48.488;13.436;2022-07-23T02:25:45;23.20;56.50
11239;DHT22;5677;48.488;13.436;2022-07-23T02:28:14;23.20;56.50
11239;DHT22;5677;48.488;13.436;2022-07-23T02:30:40;23.20;56.50
11239;DHT22;5677;48.488;13.436;2022-07-23T02:33:09;23.20;56.50
11239;DHT22;5677;48.488;13.436;2022-07-23T02:35:36;23.20;56.50
11239;DHT22;5677;48.488;13.436;2022-07-23T02:38:03;23.20;56.50
11239;DHT22;5677;48.488;13.436;2022-07-23T02:40:29;23.20;56.50
11239;DHT22;5677;48.488;13.436;2022-07-23T02:42:56;23.20;56.50
11239;DHT22;5677;48.488;13.436;2022-07-23T02:45:24;23.20;56.50
11239;DHT22;5677;48.488;13.436;2022-07-23T02:47:51;23.20;56.50
11239;DHT22;5677;48.488;13.436;2022-07-23T02:50:19;23.20;56.50
11239;DHT22;5677;48.488;13.436;2022-07-23T02:52:46;23.20;56.50
11239;DHT22;5677;48.488;13.436;2022-07-23T02:55:13;23.20;56.60
11239;DHT22;5677;48.488;13.436;2022-07-23T02:57:40;23.20;56.50
11239;DHT22;5677;48.488;13.436;2022-07-23T03:00:09;23.20;56.50
11239;DHT22;5677;48.488;13.436;2022-07-23T03:02:36;23.20;56.50
11239;DHT22;5677;48.488;13.436;2022-07-23T03:05:04;23.20;56.50
11239;DHT22;5677;48.488;13.436;2022-07-23T03:07:33;23.20;56.60
11239;DHT22;5677;48.488;13.436;2022-07-23T03:10:00;23.20;56.60
11239;DHT22;5677;48.488;13.436;2022-07-23T03:12:26;23.20;56.60
11239;DHT22;5677;48.488;13.436;2022-07-23T03:14:53;23.20;56.60
11239;DHT22;5677;48.488;13.436;2022-07-23T03:17:20;23.20;56.60
11239;DHT22;5677;48.488;13.436;2022-07-23T03:19:47;23.10;56.60
11239;DHT22;5677;48.488;13.436;2022-07-23T03:22:14;23.20;56.60
11239;DHT22;5677;48.488;13.436;2022-07-23T03:24:42;23.20;56.60
11239;DHT22;5677;48.488;13.436;2022-07-23T03:27:23;23.10;56.60
11239;DHT22;5677;48.488;13.436;2022-07-23T03:29:52;23.10;57.20
11239;DHT22;5677;48.488;13.436;2022-07-23T03:32:20;23.20;56.60
11239;DHT22;5677;48.488;13.436;2022-07-23T03:34:48;23.20;56.60
11239;DHT22;5677;48.488;13.436;2022-07-23T03:37:16;23.10;56.60
11239;DHT22;5677;48.488;13.436;2022-07-23T03:39:44;23.20;56.60
11239;DHT22;5677;48.488;13.436;2022-07-23T03:42:11;23.20;56.60
11239;DHT22;5677;48.488;13.436;2022-07-23T03:44:38;23.20;56.60
11239;DHT22;5677;48.488;13.436;2022-07-23T03:47:06;23.20;56.60
11239;DHT22;5677;48.488;13.436;2022-07-23T03:49:33;23.10;56.60
11239;DHT22;5677;48.488;13.436;2022-07-23T03:52:01;23.20;56.60
11239;DHT22;5677;48.488;13.436;2022-07-23T03:54:28;23.10;56.60
11239;DHT22;5677;48.488;13.436;2022-07-23T03:56:56;23.20;56.60
11239;DHT22;5677;48.488;13.436;2022-07-23T03:59:23;23.20;56.60
11239;DHT22;5677;48.488;13.436;2022-07-23T04:01:50;23.10;56.60
11239;DHT22;5677;48.488;13.436;2022-07-23T04:04:17;23.20;56.60
11239;DHT22;5677;48.488;13.436;2022-07-23T04:06:44;23.20;56.60
11239;DHT22;5677;48.488;13.436;2022-07-23T04:09:11;23.20;56.60
11239;DHT22;5677;48.488;13.436;2022-07-23T04:11:38;23.20;56.60
11239;DHT22;5677;48.488;13.436;2022-07-23T04:14:06;23.20;56.60
11239;DHT22;5677;48.488;13.436;2022-07-23T04:16:33;23.10;56.60
11239;DHT22;5677;48.488;13.436;2022-07-23T04:19:00;23.20;56.60
11239;DHT22;5677;48.488;13.436;2022-07-23T04:21:29;23.20;56.60
11239;DHT22;5677;48.488;13.436;2022-07-23T04:23:57;23.10;56.60
11239;DHT22;5677;48.488;13.436;2022-07-23T04:26:23;23.20;56.60
11239;DHT22;5677;48.488;13.436;2022-07-23T04:28:50;23.20;56.60
11239;DHT22;5677;48.488;13.436;2022-07-23T04:31:19;23.20;56.60
11239;DHT22;5677;48.488;13.436;2022-07-23T04:33:45;23.10;56.60
11239;DHT22;5677;48.488;13.436;2022-07-23T04:36:12;23.20;56.60
11239;DHT22;5677;48.488;13.436;2022-07-23T04:38:39;23.20;56.60
11239;DHT22;5677;48.488;13.436;2022-07-23T04:41:06;23.10;56.60
11239;DHT22;5677;48.488;13.436;2022-07-23T04:43:33;23.20;56.50
11239;DHT22;5677;48.488;13.436;2022-07-23T04:46:00;23.10;56.60
11239;DHT22;5677;48.488;13.436;2022-07-23T04:48:30;23.20;56.60
11239;DHT22;5677;48.488;13.436;2022-07-23T04:50:56;23.10;56.60
11239;DHT22;5677;48.488;13.436;2022-07-23T04:53:23;23.10;56.60
11239;DHT22;5677;48.488;13.436;2022-07-23T04:55:50;23.10;56.60
11239;DHT22;5677;48.488;13.436;2022-07-23T04:58:17;23.20;56.60
11239;DHT22;5677;48.488;13.436;2022-07-23T05:00:44;23.10;56.60
11239;DHT22;5677;48.488;13.436;2022-07-23T05:03:11;23.20;56.60
11239;DHT22;5677;48.488;13.436;2022-07-23T05:05:40;23.10;56.50
11239;DHT22;5677;48.488;13.436;2022-07-23T05:08:07;23.10;56.50
11239;DHT22;5677;48.488;13.436;2022-07-23T05:10:33;23.10;56.60
11239;DHT22;5677;48.488;13.436;2022-07-23T05:13:00;23.20;56.50
11239;DHT22;5677;48.488;13.436;2022-07-23T05:15:27;23.10;56.60
11239;DHT22;5677;48.488;13.436;2022-07-23T05:17:54;23.10;56.60
11239;DHT22;5677;48.488;13.436;2022-07-23T05:20:21;23.20;56.50
11239;DHT22;5677;48.488;13.436;2022-07-23T05:22:49;23.10;56.50
11239;DHT22;5677;48.488;13.436;2022-07-23T05:25:16;23.20;56.60
11239;DHT22;5677;48.488;13.436;2022-07-23T05:27:43;23.10;56.60
11239;DHT22;5677;48.488;13.436;2022-07-23T05:30:12;23.20;56.50
11239;DHT22;5677;48.488;13.436;2022-07-23T05:32:39;23.20;56.60
11239;DHT22;5677;48.488;13.436;2022-07-23T05:35:07;23.20;56.50
11239;DHT22;5677;48.488;13.436;2022-07-23T05:37:34;23.20;56.50
11239;DHT22;5677;48.488;13.436;2022-07-23T05:40:05;23.20;56.50
11239;DHT22;5677;48.488;13.436;2022-07-23T05:42:33;23.20;56.50
11239;DHT22;5677;48.488;13.436;2022-07-23T05:45:00;23.20;56.50
11239;DHT22;5677;48.488;13.436;2022-07-23T05:47:28;23.20;56.50
11239;DHT22;5677;48.488;13.436;2022-07-23T05:49:55;23.20;56.50
11239;DHT22;5677;48.488;13.436;2022-07-23T05:52:22;23.20;56.40
11239;DHT22;5677;48.488;13.436;2022-07-23T05:54:49;23.20;56.40
11239;DHT22;5677;48.488;13.436;2022-07-23T05:57:17;23.20;56.40
11239;DHT22;5677;48.488;13.436;2022-07-23T05:59:44;23.20;56.30
11239;DHT22;5677;48.488;13.436;2022-07-23T06:02:11;23.30;56.40
11239;DHT22;5677;48.488;13.436;2022-07-23T06:04:38;23.20;56.30
11239;DHT22;5677;48.488;13.436;2022-07-23T06:07:05;23.20;56.30
11239;DHT22;5677;48.488;13.436;2022-07-23T06:09:32;23.20;56.30
11239;DHT22;5677;48.488;13.436;2022-07-23T06:11:59;23.20;56.30
11239;DHT22;5677;48.488;13.436;2022-07-23T06:14:27;23.20;56.30
11239;DHT22;5677;48.488;13.436;2022-07-23T06:16:54;23.20;56.30
11239;DHT22;5677;48.488;13.436;2022-07-23T06:19:21;23.20;56.30
11239;DHT22;5677;48.488;13.436;2022-07-23T06:21:48;23.20;56.30
11239;DHT22;5677;48.488;13.436;2022-07-23T06:24:15;23.20;56.30
11239;DHT22;5677;48.488;13.436;2022-07-23T06:26:42;23.20;56.40
11239;DHT22;5677;48.488;13.436;2022-07-23T06:29:09;23.20;56.40
11239;DHT22;5677;48.488;13.436;2022-07-23T06:31:37;23.20;56.40
11239;DHT22;5677;48.488;13.436;2022-07-23T06:34:04;23.20;57.00
11239;DHT22;5677;48.488;13.436;2022-07-23T06:36:31;23.20;56.40
11239;DHT22;5677;48.488;13.436;2022-07-23T06:38:58;23.20;57.00
11239;DHT22;5677;48.488;13.436;2022-07-23T06:41:25;23.20;56.40
11239;DHT22;5677;48.488;13.436;2022-07-23T06:43:52;23.20;56.40
11239;DHT22;5677;48.488;13.436;2022-07-23T06:46:19;23.20;56.40
11239;DHT22;5677;48.488;13.436;2022-07-23T06:48:48;23.20;56.40
11239;DHT22;5677;48.488;13.436;2022-07-23T06:51:15;23.20;56.40
11239;DHT22;5677;48.488;13.436;2022-07-23T06:53:42;23.20;56.40
11239;DHT22;5677;48.488;13.436;2022-07-23T06:56:09;23.20;56.40
11239;DHT22;5677;48.488;13.436;2022-07-23T06:58:36;23.20;56.40
11239;DHT22;5677;48.488;13.436;2022-07-23T07:01:03;23.20;56.40
11239;DHT22;5677;48.488;13.436;2022-07-23T07:03:29;23.20;56.40
11239;DHT22;5677;48.488;13.436;2022-07-23T07:05:58;23.10;56.40
11239;DHT22;5677;48.488;13.436;2022-07-23T07:08:25;23.20;56.40
11239;DHT22;5677;48.488;13.436;2022-07-23T07:10:52;23.20;56.40
11239;DHT22;5677;48.488;13.436;2022-07-23T07:13:18;23.20;56.40
11239;DHT22;5677;48.488;13.436;2022-07-23T07:15:45;23.20;56.40
11239;DHT22;5677;48.488;13.436;2022-07-23T07:18:12;23.20;56.40
11239;DHT22;5677;48.488;13.436;2022-07-23T07:20:39;23.20;56.40
11239;DHT22;5677;48.488;13.436;2022-07-23T07:23:07;23.20;56.40
11239;DHT22;5677;48.488;13.436;2022-07-23T07:25:35;23.20;56.40
11239;DHT22;5677;48.488;13.436;2022-07-23T07:28:02;23.20;56.40
11239;DHT22;5677;48.488;13.436;2022-07-23T07:30:29;23.20;56.40
11239;DHT22;5677;48.488;13.436;2022-07-23T07:32:56;23.20;56.40
11239;DHT22;5677;48.488;13.436;2022-07-23T07:35:23;23.20;56.40
11239;DHT22;5677;48.488;13.436;2022-07-23T07:37:51;23.20;56.40
11239;DHT22;5677;48.488;13.436;2022-07-23T07:40:19;23.20;56.40
11239;DHT22;5677;48.488;13.436;2022-07-23T07:42:47;23.20;56.40
11239;DHT22;5677;48.488;13.436;2022-07-23T07:45:15;23.20;56.40
11239;DHT22;5677;48.488;13.436;2022-07-23T07:47:43;23.20;56.30
11239;DHT22;5677;48.488;13.436;2022-07-23T07:50:10;23.20;56.30
11239;DHT22;5677;48.488;13.436;2022-07-23T07:52:37;23.20;56.30
11239;DHT22;5677;48.488;13.436;2022-07-23T07:55:04;23.20;56.40
11239;DHT22;5677;48.488;13.436;2022-07-23T07:57:34;23.30;56.40
11239;DHT22;5677;48.488;13.436;2022-07-23T08:00:02;23.20;56.30
11239;DHT22;5677;48.488;13.436;2022-07-23T08:02:39;23.20;56.30
11239;DHT22;5677;48.488;13.436;2022-07-23T08:05:08;23.20;56.30
11239;DHT22;5677;48.488;13.436;2022-07-23T08:07:35;23.30;56.40
11239;DHT22;5677;48.488;13.436;2022-07-23T08:10:05;23.30;56.40
11239;DHT22;5677;48.488;13.436;2022-07-23T08:12:43;23.30;56.30
11239;DHT22;5677;48.488;13.436;2022-07-23T08:15:12;23.30;56.30
11239;DHT22;5677;48.488;13.436;2022-07-23T08:17:40;23.30;56.30
11239;DHT22;5677;48.488;13.436;2022-07-23T08:20:08;23.30;56.30
11239;DHT22;5677;48.488;13.436;2022-07-23T08:22:45;23.30;56.30
11239;DHT22;5677;48.488;13.436;2022-07-23T08:25:13;23.30;56.30
11239;DHT22;5677;48.488;13.436;2022-07-23T08:27:42;23.30;56.30
11239;DHT22;5677;48.488;13.436;2022-07-23T08:30:10;23.30;56.30
11239;DHT22;5677;48.488;13.436;2022-07-23T08:32:50;23.30;56.20
11239;DHT22;5677;48.488;13.436;2022-07-23T08:35:25;23.30;56.20
11239;DHT22;5677;48.488;13.436;2022-07-23T08:37:54;23.30;56.20
11239;DHT22;5677;48.488;13.436;2022-07-23T08:40:22;23.30;56.20
11239;DHT22;5677;48.488;13.436;2022-07-23T08:42:51;23.30;56.20
11239;DHT22;5677;48.488;13.436;2022-07-23T08:45:19;23.30;56.20
11239;DHT22;5677;48.488;13.436;2022-07-23T08:47:49;23.40;56.20
11239;DHT22;5677;48.488;13.436;2022-07-23T08:50:17;23.30;56.20
11239;DHT22;5677;48.488;13.436;2022-07-23T08:52:44;23.30;56.20
11239;DHT22;5677;48.488;13.436;2022-07-23T08:55:12;23.30;56.20
11239;DHT22;5677;48.488;13.436;2022-07-23T08:57:39;23.30;56.20
11239;DHT22;5677;48.488;13.436;2022-07-23T09:00:09;23.30;56.20
11239;DHT22;5677;48.488;13.436;2022-07-23T09:02:40;23.30;56.20
11239;DHT22;5677;48.488;13.436;2022-07-23T09:05:09;23.30;56.30
11239;DHT22;5677;48.488;13.436;2022-07-23T09:07:38;23.30;56.20
11239;DHT22;5677;48.488;13.436;2022-07-23T09:10:48;23.40;56.30
11239;DHT22;5677;48.488;13.436;2022-07-23T09:13:35;23.30;56.20
11239;DHT22;5677;48.488;13.436;2022-07-23T09:16:06;23.30;56.20
11239;DHT22;5677;48.488;13.436;2022-07-23T09:18:38;23.40;56.20
11239;DHT22;5677;48.488;13.436;2022-07-23T09:21:12;23.30;56.20
11239;DHT22;5677;48.488;13.436;2022-07-23T09:23:43;23.30;56.20
11239;DHT22;5677;48.488;13.436;2022-07-23T09:26:26;23.30;56.40
11239;DHT22;5677;48.488;13.436;2022-07-23T09:29:04;23.30;56.20
11239;DHT22;5677;48.488;13.436;2022-07-23T09:31:44;23.40;56.20
11239;DHT22;5677;48.488;13.436;2022-07-23T09:34:16;23.40;56.20
11239;DHT22;5677;48.488;13.436;2022-07-23T09:36:46;23.40;56.20
11239;DHT22;5677;48.488;13.436;2022-07-23T09:39:16;23.40;56.20
11239;DHT22;5677;48.488;13.436;2022-07-23T09:41:51;23.40;56.10
11239;DHT22;5677;48.488;13.436;2022-07-23T09:44:19;23.40;56.10
11239;DHT22;5677;48.488;13.436;2022-07-23T09:46:48;23.40;56.10
11239;DHT22;5677;48.488;13.436;2022-07-23T09:49:18;23.40;56.10
11239;DHT22;5677;48.488;13.436;2022-07-23T09:51:50;23.40;56.10
11239;DHT22;5677;48.488;13.436;2022-07-23T09:54:38;23.40;56.10
11239;DHT22;5677;48.488;13.436;2022-07-23T09:57:07;23.40;56.10
11239;DHT22;5677;48.488;13.436;2022-07-23T09:59:41;23.40;56.00
11239;DHT22;5677;48.488;13.436;2022-07-23T10:02:10;23.40;56.00
11239;DHT22;5677;48.488;13.436;2022-07-23T10:04:39;23.40;56.00
11239;DHT22;5677;48.488;13.436;2022-07-23T10:07:08;23.40;56.00
11239;DHT22;5677;48.488;13.436;2022-07-23T10:09:38;23.50;56.10
11239;DHT22;5677;48.488;13.436;2022-07-23T10:12:10;23.40;56.00
11239;DHT22;5677;48.488;13.436;2022-07-23T10:15:05;23.40;56.00
11239;DHT22;5677;48.488;13.436;2022-07-23T10:17:33;23.40;56.00
11239;DHT22;5677;48.488;13.436;2022-07-23T10:20:02;23.40;56.00
11239;DHT22;5677;48.488;13.436;2022-07-23T10:22:32;23.40;56.00
11239;DHT22;5677;48.488;13.436;2022-07-23T10:25:14;23.40;56.00
11239;DHT22;5677;48.488;13.436;2022-07-23T10:28:15;23.40;56.00
11239;DHT22;5677;48.488;13.436;2022-07-23T10:31:03;23.50;56.10
11239;DHT22;5677;48.488;13.436;2022-07-23T10:33:53;23.40;56.00
11239;DHT22;5677;48.488;13.436;2022-07-23T10:36:29;23.50;56.00
11239;DHT22;5677;48.488;13.436;2022-07-23T10:39:04;23.50;56.00
11239;DHT22;5677;48.488;13.436;2022-07-23T10:41:38;23.50;56.10
11239;DHT22;5677;48.488;13.436;2022-07-23T10:44:08;23.50;56.00
11239;DHT22;5677;48.488;13.436;2022-07-23T10:46:54;23.40;56.00
11239;DHT22;5677;48.488;13.436;2022-07-23T10:49:36;23.50;56.00
11239;DHT22;5677;48.488;13.436;2022-07-23T10:52:19;23.50;56.00
11239;DHT22;5677;48.488;13.436;2022-07-23T10:54:53;23.50;56.00
11239;DHT22;5677;48.488;13.436;2022-07-23T10:57:23;23.50;56.00
11239;DHT22;5677;48.488;13.436;2022-07-23T11:02:56;23.50;56.00
11239;DHT22;5677;48.488;13.436;2022-07-23T11:05:27;23.50;56.00
11239;DHT22;5677;48.488;13.436;2022-07-23T11:08:16;23.50;56.00
11239;DHT22;5677;48.488;13.436;2022-07-23T11:10:48;23.50;56.00
11239;DHT22;5677;48.488;13.436;2022-07-23T11:13:29;23.50;56.00
11239;DHT22;5677;48.488;13.436;2022-07-23T11:16:23;23.60;56.00
11239;DHT22;5677;48.488;13.436;2022-07-23T11:18:56;23.50;55.90
11239;DHT22;5677;48.488;13.436;2022-07-23T11:21:51;23.60;56.00
11239;DHT22;5677;48.488;13.436;2022-07-23T11:24:23;23.50;55.90
11239;DHT22;5677;48.488;13.436;2022-07-23T11:26:56;23.60;56.00
11239;DHT22;5677;48.488;13.436;2022-07-23T11:29:46;23.50;55.90
11239;DHT22;5677;48.488;13.436;2022-07-23T11:32:31;23.60;55.90
11239;DHT22;5677;48.488;13.436;2022-07-23T11:35:19;23.60;55.90
11239;DHT22;5677;48.488;13.436;2022-07-23T11:37:52;23.60;55.90
11239;DHT22;5677;48.488;13.436;2022-07-23T11:40:24;23.60;55.90
11239;DHT22;5677;48.488;13.436;2022-07-23T11:42:55;23.60;55.80
11239;DHT22;5677;48.488;13.436;2022-07-23T11:45:32;23.60;55.80
11239;DHT22;5677;48.488;13.436;2022-07-23T11:48:00;23.60;55.90
11239;DHT22;5677;48.488;13.436;2022-07-23T11:50:28;23.60;55.80
11239;DHT22;5677;48.488;13.436;2022-07-23T11:52:56;23.60;55.80
11239;DHT22;5677;48.488;13.436;2022-07-23T11:55:23;23.60;55.80
11239;DHT22;5677;48.488;13.436;2022-07-23T11:57:51;23.60;55.80
11239;DHT22;5677;48.488;13.436;2022-07-23T12:00:21;23.60;55.80
11239;DHT22;5677;48.488;13.436;2022-07-23T12:02:52;23.60;55.80
11239;DHT22;5677;48.488;13.436;2022-07-23T12:05:21;23.60;55.80
11239;DHT22;5677;48.488;13.436;2022-07-23T12:07:50;23.60;55.80
11239;DHT22;5677;48.488;13.436;2022-07-23T12:10:21;23.60;55.80
11239;DHT22;5677;48.488;13.436;2022-07-23T12:12:52;23.70;55.90
11239;DHT22;5677;48.488;13.436;2022-07-23T12:15:22;23.60;55.70
11239;DHT22;5677;48.488;13.436;2022-07-23T12:17:53;23.60;55.70
11239;DHT22;5677;48.488;13.436;2022-07-23T12:20:21;23.70;55.80
11239;DHT22;5677;48.488;13.436;2022-07-23T12:22:52;23.70;56.40
11239;DHT22;5677;48.488;13.436;2022-07-23T12:25:26;23.70;55.80
11239;DHT22;5677;48.488;13.436;2022-07-23T12:28:00;23.70;55.80
11239;DHT22;5677;48.488;13.436;2022-07-23T12:30:31;23.70;55.80
11239;DHT22;5677;48.488;13.436;2022-07-23T12:33:01;23.70;55.70
11239;DHT22;5677;48.488;13.436;2022-07-23T12:35:35;23.70;55.70
11239;DHT22;5677;48.488;13.436;2022-07-23T12:38:07;23.70;55.70
11239;DHT22;5677;48.488;13.436;2022-07-23T12:40:37;23.70;55.70
11239;DHT22;5677;48.488;13.436;2022-07-23T12:43:11;23.70;55.70
11239;DHT22;5677;48.488;13.436;2022-07-23T12:45:46;23.70;55.70
11239;DHT22;5677;48.488;13.436;2022-07-23T12:48:21;23.80;55.70
11239;DHT22;5677;48.488;13.436;2022-07-23T12:50:57;23.80;55.70
11239;DHT22;5677;48.488;13.436;2022-07-23T12:53:27;23.70;55.70
11239;DHT22;5677;48.488;13.436;2022-07-23T12:56:01;23.70;55.70
11239;DHT22;5677;48.488;13.436;2022-07-23T12:58:40;23.80;55.70
11239;DHT22;5677;48.488;13.436;2022-07-23T13:01:24;23.70;55.80
11239;DHT22;5677;48.488;13.436;2022-07-23T13:03:59;23.70;55.80
11239;DHT22;5677;48.488;13.436;2022-07-23T13:06:28;23.70;55.80
11239;DHT22;5677;48.488;13.436;2022-07-23T13:08:57;23.70;55.80
11239;DHT22;5677;48.488;13.436;2022-07-23T13:11:24;23.70;55.90
11239;DHT22;5677;48.488;13.436;2022-07-23T13:13:52;23.70;55.90
11239;DHT22;5677;48.488;13.436;2022-07-23T13:16:19;23.70;55.90
11239;DHT22;5677;48.488;13.436;2022-07-23T13:18:46;23.70;55.90
11239;DHT22;5677;48.488;13.436;2022-07-23T13:21:14;23.70;55.90
11239;DHT22;5677;48.488;13.436;2022-07-23T13:23:42;23.70;55.90
11239;DHT22;5677;48.488;13.436;2022-07-23T13:26:09;23.70;55.90
11239;DHT22;5677;48.488;13.436;2022-07-23T13:28:36;23.70;55.90
11239;DHT22;5677;48.488;13.436;2022-07-23T13:31:03;23.70;55.90
11239;DHT22;5677;48.488;13.436;2022-07-23T13:33:30;23.70;55.90
11239;DHT22;5677;48.488;13.436;2022-07-23T13:35:57;23.70;55.90
11239;DHT22;5677;48.488;13.436;2022-07-23T13:38:25;23.70;55.90
11239;DHT22;5677;48.488;13.436;2022-07-23T13:40:54;23.70;55.90
11239;DHT22;5677;48.488;13.436;2022-07-23T13:43:22;23.70;55.90
11239;DHT22;5677;48.488;13.436;2022-07-23T13:45:51;23.70;55.90
11239;DHT22;5677;48.488;13.436;2022-07-23T13:48:19;23.70;55.90
11239;DHT22;5677;48.488;13.436;2022-07-23T13:50:48;23.70;55.90
11239;DHT22;5677;48.488;13.436;2022-07-23T13:53:17;23.80;55.90
11239;DHT22;5677;48.488;13.436;2022-07-23T13:55:49;23.80;55.90
11239;DHT22;5677;48.488;13.436;2022-07-23T13:58:18;23.80;55.90
11239;DHT22;5677;48.488;13.436;2022-07-23T14:00:49;23.80;55.80
11239;DHT22;5677;48.488;13.436;2022-07-23T14:03:19;23.80;55.80
11239;DHT22;5677;48.488;13.436;2022-07-23T14:05:48;23.80;55.80
11239;DHT22;5677;48.488;13.436;2022-07-23T14:08:15;23.80;55.80
11239;DHT22;5677;48.488;13.436;2022-07-23T14:10:42;23.80;55.80
11239;DHT22;5677;48.488;13.436;2022-07-23T14:13:10;23.80;55.70
11239;DHT22;5677;48.488;13.436;2022-07-23T14:15:37;23.80;55.70
11239;DHT22;5677;48.488;13.436;2022-07-23T14:18:06;23.80;55.70
11239;DHT22;5677;48.488;13.436;2022-07-23T14:20:34;23.80;55.70
11239;DHT22;5677;48.488;13.436;2022-07-23T14:23:01;23.90;55.70
11239;DHT22;5677;48.488;13.436;2022-07-23T14:25:28;23.80;55.70
11239;DHT22;5677;48.488;13.436;2022-07-23T14:27:55;23.90;55.80
11239;DHT22;5677;48.488;13.436;2022-07-23T14:30:23;23.90;55.70
11239;DHT22;5677;48.488;13.436;2022-07-23T14:32:50;23.80;55.70
11239;DHT22;5677;48.488;13.436;2022-07-23T14:35:17;23.90;55.70
11239;DHT22;5677;48.488;13.436;2022-07-23T14:37:45;23.80;55.70
11239;DHT22;5677;48.488;13.436;2022-07-23T14:40:12;23.90;55.70
11239;DHT22;5677;48.488;13.436;2022-07-23T14:42:39;23.90;55.80
11239;DHT22;5677;48.488;13.436;2022-07-23T14:45:06;23.90;55.70
11239;DHT22;5677;48.488;13.436;2022-07-23T14:47:35;23.90;55.80
11239;DHT22;5677;48.488;13.436;2022-07-23T14:50:03;23.90;55.80
11239;DHT22;5677;48.488;13.436;2022-07-23T14:52:30;23.80;55.70
11239;DHT22;5677;48.488;13.436;2022-07-23T14:54:57;23.90;55.80
11239;DHT22;5677;48.488;13.436;2022-07-23T14:57:24;23.90;55.90
11239;DHT22;5677;48.488;13.436;2022-07-23T14:59:51;23.90;55.80
11239;DHT22;5677;48.488;13.436;2022-07-23T15:02:18;23.90;55.80
11239;DHT22;5677;48.488;13.436;2022-07-23T15:04:46;23.90;55.80
11239;DHT22;5677;48.488;13.436;2022-07-23T15:07:13;23.90;55.80
11239;DHT22;5677;48.488;13.436;2022-07-23T15:09:40;23.90;55.90
11239;DHT22;5677;48.488;13.436;2022-07-23T15:12:07;23.90;55.90
11239;DHT22;5677;48.488;13.436;2022-07-23T15:14:34;23.90;55.90
11239;DHT22;5677;48.488;13.436;2022-07-23T15:17:01;23.90;55.90
11239;DHT22;5677;48.488;13.436;2022-07-23T15:19:28;23.90;55.90
11239;DHT22;5677;48.488;13.436;2022-07-23T15:21:56;23.90;55.90
11239;DHT22;5677;48.488;13.436;2022-07-23T15:24:24;23.90;55.90
11239;DHT22;5677;48.488;13.436;2022-07-23T15:26:51;23.90;55.90
11239;DHT22;5677;48.488;13.436;2022-07-23T15:29:18;23.90;55.90
11239;DHT22;5677;48.488;13.436;2022-07-23T15:31:45;23.80;55.80
11239;DHT22;5677;48.488;13.436;2022-07-23T15:34:12;23.90;55.90
11239;DHT22;5677;48.488;13.436;2022-07-23T15:36:39;23.90;56.00
11239;DHT22;5677;48.488;13.436;2022-07-23T15:39:08;23.90;56.00
11239;DHT22;5677;48.488;13.436;2022-07-23T15:41:35;23.80;55.90
11239;DHT22;5677;48.488;13.436;2022-07-23T15:44:02;23.80;55.90
11239;DHT22;5677;48.488;13.436;2022-07-23T15:46:29;23.90;56.00
11239;DHT22;5677;48.488;13.436;2022-07-23T15:48:56;23.80;55.90